sensor_id;sensor_type;location;lat;lon;timestamp;temperature;humidity
45906;DHT22;31619;49.008;12.106;2022-09-09T00:04:35;14.40;99.90
45906;DHT22;31619;49.008;12.106;2022-09-09T00:07:13;14.40;99.90
45906;DHT22;31619;49.008;12.106;2022-09-09T00:09:54;14.30;99.90
45906;DHT22;31619;49.008;12.106;2022-09-09T00:15:11;14.20;99.90
45906;DHT22;31619;49.008;12.106;2022-09-09T00:23:14;14.20;99.90
45906;DHT22;31619;49.008;12.106;2022-09-09T00:26:14;14.20;99.90
45906;DHT22;31619;49.008;12.106;2022-09-09T00:31:33;14.20;99.90
45906;DHT22;31619;49.008;12.106;2022-09-09T00:34:05;14.20;99.90
45906;DHT22;31619;49.008;12.106;2022-09-09T00:36:35;14.20;99.90
45906;DHT22;31619;49.008;12.106;2022-09-09T00:39:02;14.20;99.90
45906;DHT22;31619;49.008;12.106;2022-09-09T00:42:16;14.20;99.90
45906;DHT22;31619;49.008;12.106;2022-09-09T00:44:37;14.30;99.90
45906;DHT22;31619;49.008;12.106;2022-09-09T00:52:35;14.50;99.90
45906;DHT22;31619;49.008;12.106;2022-09-09T00:55:24;14.60;99.90
45906;DHT22;31619;49.008;12.106;2022-09-09T00:57:53;14.50;99.90
45906;DHT22;31619;49.008;12.106;2022-09-09T01:00:29;14.60;99.90
45906;DHT22;31619;49.008;12.106;2022-09-09T01:03:19;14.60;99.90
45906;DHT22;31619;49.008;12.106;2022-09-09T01:05:55;14.70;99.90
45906;DHT22;31619;49.008;12.106;2022-09-09T01:11:26;14.70;99.90
45906;DHT22;31619;49.008;12.106;2022-09-09T01:14:20;14.70;99.90
45906;DHT22;31619;49.008;12.106;2022-09-09T01:16:52;14.70;99.90
45906;DHT22;31619;49.008;12.106;2022-09-09T01:22:15;14.70;99.90
45906;DHT22;31619;49.008;12.106;2022-09-09T01:27:28;14.70;99.90
45906;DHT22;31619;49.008;12.106;2022-09-09T01:29:54;14.70;99.90
45906;DHT22;31619;49.008;12.106;2022-09-09T01:32:39;14.70;99.90
45906;DHT22;31619;49.008;12.106;2022-09-09T01:35:09;14.70;99.90
45906;DHT22;31619;49.008;12.106;2022-09-09T01:37:35;14.70;99.90
45906;DHT22;31619;49.008;12.106;2022-09-09T01:40:01;14.70;99.90
45906;DHT22;31619;49.008;12.106;2022-09-09T01:42:27;14.70;99.90
45906;DHT22;31619;49.008;12.106;2022-09-09T01:44:52;14.80;99.90
45906;DHT22;31619;49.008;12.106;2022-09-09T01:47:19;14.80;99.90
45906;DHT22;31619;49.008;12.106;2022-09-09T01:49:45;14.80;99.90
45906;DHT22;31619;49.008;12.106;2022-09-09T01:52:11;14.90;99.90
45906;DHT22;31619;49.008;12.106;2022-09-09T01:54:36;14.90;99.90
45906;DHT22;31619;49.008;12.106;2022-09-09T01:57:27;14.90;99.90
45906;DHT22;31619;49.008;12.106;2022-09-09T02:00:11;14.90;99.90
45906;DHT22;31619;49.008;12.106;2022-09-09T02:02:54;14.90;99.90
45906;DHT22;31619;49.008;12.106;2022-09-09T02:05:39;14.90;99.90
45906;DHT22;31619;49.008;12.106;2022-09-09T02:10:58;15.00;99.90
45906;DHT22;31619;49.008;12.106;2022-09-09T02:13:25;15.00;99.90
45906;DHT22;31619;49.008;12.106;2022-09-09T02:16:08;15.00;99.90
45906;DHT22;31619;49.008;12.106;2022-09-09T02:18:57;14.90;99.90
45906;DHT22;31619;49.008;12.106;2022-09-09T02:21:31;14.90;99.90
45906;DHT22;31619;49.008;12.106;2022-09-09T02:23:59;14.90;99.90
45906;DHT22;31619;49.008;12.106;2022-09-09T02:26:26;14.90;99.90
45906;DHT22;31619;49.008;12.106;2022-09-09T02:28:54;15.00;99.90
45906;DHT22;31619;49.008;12.106;2022-09-09T02:31:22;14.90;99.90
45906;DHT22;31619;49.008;12.106;2022-09-09T02:33:57;14.80;99.90
45906;DHT22;31619;49.008;12.106;2022-09-09T02:36:27;14.80;99.90
45906;DHT22;31619;49.008;12.106;2022-09-09T02:38:54;14.70;99.90
45906;DHT22;31619;49.008;12.106;2022-09-09T02:41:26;14.60;99.90
45906;DHT22;31619;49.008;12.106;2022-09-09T02:43:52;14.60;99.90
45906;DHT22;31619;49.008;12.106;2022-09-09T02:46:32;14.50;99.90
45906;DHT22;31619;49.008;12.106;2022-09-09T02:49:21;14.50;99.90
45906;DHT22;31619;49.008;12.106;2022-09-09T02:52:13;14.50;99.90
45906;DHT22;31619;49.008;12.106;2022-09-09T02:54:41;14.60;99.90
45906;DHT22;31619;49.008;12.106;2022-09-09T02:57:22;14.60;99.90
45906;DHT22;31619;49.008;12.106;2022-09-09T02:59:50;14.60;99.90
45906;DHT22;31619;49.008;12.106;2022-09-09T03:02:18;14.60;99.90
45906;DHT22;31619;49.008;12.106;2022-09-09T03:04:44;14.70;99.90
45906;DHT22;31619;49.008;12.106;2022-09-09T03:07:11;14.70;99.90
45906;DHT22;31619;49.008;12.106;2022-09-09T03:09:37;14.70;99.90
45906;DHT22;31619;49.008;12.106;2022-09-09T03:12:03;14.60;99.90
45906;DHT22;31619;49.008;12.106;2022-09-09T03:14:32;14.70;99.90
45906;DHT22;31619;49.008;12.106;2022-09-09T03:16:58;14.70;99.90
45906;DHT22;31619;49.008;12.106;2022-09-09T03:19:26;14.70;99.90
45906;DHT22;31619;49.008;12.106;2022-09-09T03:21:53;14.70;99.90
45906;DHT22;31619;49.008;12.106;2022-09-09T03:24:19;14.60;99.90
45906;DHT22;31619;49.008;12.106;2022-09-09T03:26:45;14.70;99.90
45906;DHT22;31619;49.008;12.106;2022-09-09T03:29:12;14.70;99.90
45906;DHT22;31619;49.008;12.106;2022-09-09T03:31:38;14.80;99.90
45906;DHT22;31619;49.008;12.106;2022-09-09T03:34:04;14.80;99.90
45906;DHT22;31619;49.008;12.106;2022-09-09T03:36:30;14.70;99.90
45906;DHT22;31619;49.008;12.106;2022-09-09T03:38:56;14.70;99.90
45906;DHT22;31619;49.008;12.106;2022-09-09T03:41:23;14.60;99.90
45906;DHT22;31619;49.008;12.106;2022-09-09T03:43:50;14.60;99.90
45906;DHT22;31619;49.008;12.106;2022-09-09T03:46:17;14.60;99.90
45906;DHT22;31619;49.008;12.106;2022-09-09T03:48:43;14.60;99.90
45906;DHT22;31619;49.008;12.106;2022-09-09T03:51:09;14.60;99.90
45906;DHT22;31619;49.008;12.106;2022-09-09T03:53:36;14.60;99.90
45906;DHT22;31619;49.008;12.106;2022-09-09T03:56:04;14.60;99.90
45906;DHT22;31619;49.008;12.106;2022-09-09T03:58:33;14.50;99.90
45906;DHT22;31619;49.008;12.106;2022-09-09T04:01:01;14.50;99.90
45906;DHT22;31619;49.008;12.106;2022-09-09T04:03:27;14.50;99.90
45906;DHT22;31619;49.008;12.106;2022-09-09T04:05:55;14.50;99.90
45906;DHT22;31619;49.008;12.106;2022-09-09T04:08:22;14.50;99.90
45906;DHT22;31619;49.008;12.106;2022-09-09T04:10:49;14.50;99.90
45906;DHT22;31619;49.008;12.106;2022-09-09T04:13:16;14.50;99.90
45906;DHT22;31619;49.008;12.106;2022-09-09T04:15:44;14.50;99.90
45906;DHT22;31619;49.008;12.106;2022-09-09T04:18:10;14.50;99.90
45906;DHT22;31619;49.008;12.106;2022-09-09T04:20:37;14.50;99.90
45906;DHT22;31619;49.008;12.106;2022-09-09T04:23:03;14.50;99.90
45906;DHT22;31619;49.008;12.106;2022-09-09T04:25:29;14.50;99.90
45906;DHT22;31619;49.008;12.106;2022-09-09T04:27:56;14.40;99.90
45906;DHT22;31619;49.008;12.106;2022-09-09T04:30:23;14.40;99.90
45906;DHT22;31619;49.008;12.106;2022-09-09T04:32:49;14.40;99.90
45906;DHT22;31619;49.008;12.106;2022-09-09T04:35:14;14.40;99.90
45906;DHT22;31619;49.008;12.106;2022-09-09T04:37:40;14.40;99.90
45906;DHT22;31619;49.008;12.106;2022-09-09T04:40:07;14.30;99.90
45906;DHT22;31619;49.008;12.106;2022-09-09T04:42:35;14.30;99.90
45906;DHT22;31619;49.008;12.106;2022-09-09T04:45:02;14.40;99.90
45906;DHT22;31619;49.008;12.106;2022-09-09T04:47:28;14.30;99.90
45906;DHT22;31619;49.008;12.106;2022-09-09T04:49:53;14.30;99.90
45906;DHT22;31619;49.008;12.106;2022-09-09T04:52:20;14.30;99.90
45906;DHT22;31619;49.008;12.106;2022-09-09T04:54:46;14.40;99.90
45906;DHT22;31619;49.008;12.106;2022-09-09T04:57:12;14.40;99.90
45906;DHT22;31619;49.008;12.106;2022-09-09T04:59:38;14.40;99.90
45906;DHT22;31619;49.008;12.106;2022-09-09T05:02:05;14.50;99.90
45906;DHT22;31619;49.008;12.106;2022-09-09T05:04:30;14.60;99.90
45906;DHT22;31619;49.008;12.106;2022-09-09T05:06:56;14.70;99.90
45906;DHT22;31619;49.008;12.106;2022-09-09T05:09:22;14.60;99.90
45906;DHT22;31619;49.008;12.106;2022-09-09T05:11:48;14.60;99.90
45906;DHT22;31619;49.008;12.106;2022-09-09T05:14:14;14.70;99.90
45906;DHT22;31619;49.008;12.106;2022-09-09T05:16:40;14.70;99.90
45906;DHT22;31619;49.008;12.106;2022-09-09T05:19:06;14.80;99.90
45906;DHT22;31619;49.008;12.106;2022-09-09T05:21:34;14.80;99.90
45906;DHT22;31619;49.008;12.106;2022-09-09T05:23:59;14.90;99.90
45906;DHT22;31619;49.008;12.106;2022-09-09T05:26:28;14.90;99.90
45906;DHT22;31619;49.008;12.106;2022-09-09T05:28:55;15.10;99.90
45906;DHT22;31619;49.008;12.106;2022-09-09T05:31:21;15.30;99.90
45906;DHT22;31619;49.008;12.106;2022-09-09T05:33:47;15.40;99.90
45906;DHT22;31619;49.008;12.106;2022-09-09T05:36:16;15.50;99.90
45906;DHT22;31619;49.008;12.106;2022-09-09T05:38:43;15.60;99.90
45906;DHT22;31619;49.008;12.106;2022-09-09T05:41:09;15.70;99.90
45906;DHT22;31619;49.008;12.106;2022-09-09T05:43:36;15.70;99.90
45906;DHT22;31619;49.008;12.106;2022-09-09T05:46:10;15.80;99.90
45906;DHT22;31619;49.008;12.106;2022-09-09T05:48:38;15.90;99.90
45906;DHT22;31619;49.008;12.106;2022-09-09T05:51:05;16.10;99.90
45906;DHT22;31619;49.008;12.106;2022-09-09T05:53:32;16.10;99.90
45906;DHT22;31619;49.008;12.106;2022-09-09T05:56:04;16.20;99.90
45906;DHT22;31619;49.008;12.106;2022-09-09T05:58:34;16.30;99.90
45906;DHT22;31619;49.008;12.106;2022-09-09T06:01:13;16.20;99.90
45906;DHT22;31619;49.008;12.106;2022-09-09T06:03:40;16.40;99.90
45906;DHT22;31619;49.008;12.106;2022-09-09T06:06:12;16.50;99.90
45906;DHT22;31619;49.008;12.106;2022-09-09T06:08:40;16.50;99.90
45906;DHT22;31619;49.008;12.106;2022-09-09T06:11:17;16.40;99.90
45906;DHT22;31619;49.008;12.106;2022-09-09T06:13:43;16.20;99.90
45906;DHT22;31619;49.008;12.106;2022-09-09T06:16:10;16.00;99.90
45906;DHT22;31619;49.008;12.106;2022-09-09T06:18:37;15.80;99.90
45906;DHT22;31619;49.008;12.106;2022-09-09T06:21:05;15.50;99.90
45906;DHT22;31619;49.008;12.106;2022-09-09T06:23:35;15.40;99.90
45906;DHT22;31619;49.008;12.106;2022-09-09T06:26:05;15.50;99.90
45906;DHT22;31619;49.008;12.106;2022-09-09T06:28:33;15.70;99.90
